sensor_id;sensor_type;location;lat;lon;timestamp;pressure;altitude;pressure_sealevel;temperature;humidity
32486;BME280;18935;52.236;21.134;2022-09-21T00:03:38;99660.47;;;3.81;100.00
32486;BME280;18935;52.236;21.134;2022-09-21T00:06:07;99664.78;;;3.83;100.00
32486;BME280;18935;52.236;21.134;2022-09-21T00:08:33;99662.16;;;3.85;100.00
32486;BME280;18935;52.236;21.134;2022-09-21T00:10:58;99666.47;;;3.83;100.00
32486;BME280;18935;52.236;21.134;2022-09-21T00:13:24;99662.13;;;3.86;100.00
32486;BME280;18935;52.236;21.134;2022-09-21T00:15:50;99655.25;;;3.87;100.00
32486;BME280;18935;52.236;21.134;2022-09-21T00:18:16;99662.97;;;3.87;100.00
32486;BME280;18935;52.236;21.134;2022-09-21T00:20:41;99654.44;;;3.83;100.00
32486;BME280;18935;52.236;21.134;2022-09-21T00:23:09;99652.66;;;3.87;100.00
32486;BME280;18935;52.236;21.134;2022-09-21T00:25:34;99658.63;;;3.92;100.00
32486;BME280;18935;52.236;21.134;2022-09-21T00:28:00;99660.16;;;4.04;100.00
32486;BME280;18935;52.236;21.134;2022-09-21T00:30:25;99664.56;;;3.96;100.00
32486;BME280;18935;52.236;21.134;2022-09-21T00:32:51;99656.88;;;3.94;100.00
32486;BME280;18935;52.236;21.134;2022-09-21T00:35:17;99661.09;;;3.98;100.00
32486;BME280;18935;52.236;21.134;2022-09-21T00:37:42;99673.97;;;4.01;100.00
32486;BME280;18935;52.236;21.134;2022-09-21T00:40:07;99661.00;;;4.04;100.00
32486;BME280;18935;52.236;21.134;2022-09-21T00:42:33;99666.22;;;4.01;100.00
32486;BME280;18935;52.236;21.134;2022-09-21T00:44:58;99670.38;;;4.11;100.00
32486;BME280;18935;52.236;21.134;2022-09-21T00:47:34;99670.44;;;4.05;100.00
32486;BME280;18935;52.236;21.134;2022-09-21T00:50:02;99666.97;;;4.09;100.00
32486;BME280;18935;52.236;21.134;2022-09-21T00:52:29;99668.66;;;4.10;100.00
32486;BME280;18935;52.236;21.134;2022-09-21T00:55:05;99664.38;;;4.09;100.00
32486;BME280;18935;52.236;21.134;2022-09-21T00:57:32;99663.34;;;4.19;100.00
32486;BME280;18935;52.236;21.134;2022-09-21T01:00:00;99666.84;;;4.17;100.00
32486;BME280;18935;52.236;21.134;2022-09-21T01:02:25;99669.44;;;4.17;100.00
32486;BME280;18935;52.236;21.134;2022-09-21T01:04:51;99658.25;;;4.16;100.00
32486;BME280;18935;52.236;21.134;2022-09-21T01:07:22;99667.66;;;4.19;100.00
32486;BME280;18935;52.236;21.134;2022-09-21T01:09:49;99665.13;;;4.17;100.00
32486;BME280;18935;52.236;21.134;2022-09-21T01:14:49;99666.00;;;4.16;100.00
32486;BME280;18935;52.236;21.134;2022-09-21T01:17:21;99669.41;;;4.18;100.00
32486;BME280;18935;52.236;21.134;2022-09-21T01:20:09;99669.50;;;4.11;100.00
32486;BME280;18935;52.236;21.134;2022-09-21T01:27:51;99683.22;;;4.13;100.00
32486;BME280;18935;52.236;21.134;2022-09-21T01:30:21;99682.31;;;4.18;100.00
32486;BME280;18935;52.236;21.134;2022-09-21T01:32:50;99684.91;;;4.17;100.00
32486;BME280;18935;52.236;21.134;2022-09-21T01:35:21;99686.66;;;4.16;100.00
32486;BME280;18935;52.236;21.134;2022-09-21T01:37:59;99684.00;;;4.19;100.00
32486;BME280;18935;52.236;21.134;2022-09-21T01:40:36;99680.59;;;4.17;100.00
32486;BME280;18935;52.236;21.134;2022-09-21T01:43:03;99685.69;;;4.21;100.00
32486;BME280;18935;52.236;21.134;2022-09-21T01:45:30;99685.63;;;4.27;100.00
32486;BME280;18935;52.236;21.134;2022-09-21T01:47:58;99693.31;;;4.31;100.00
32486;BME280;18935;52.236;21.134;2022-09-21T01:50:24;99686.28;;;4.39;100.00
32486;BME280;18935;52.236;21.134;2022-09-21T01:52:54;99692.38;;;4.34;100.00
32486;BME280;18935;52.236;21.134;2022-09-21T01:55:30;99693.13;;;4.42;100.00
32486;BME280;18935;52.236;21.134;2022-09-21T02:00:32;99699.06;;;4.47;100.00
32486;BME280;18935;52.236;21.134;2022-09-21T02:03:00;99693.19;;;4.39;100.00
32486;BME280;18935;52.236;21.134;2022-09-21T02:05:28;99703.56;;;4.34;100.00
32486;BME280;18935;52.236;21.134;2022-09-21T02:07:54;99704.41;;;4.35;100.00
32486;BME280;18935;52.236;21.134;2022-09-21T02:10:42;99705.25;;;4.38;100.00
32486;BME280;18935;52.236;21.134;2022-09-21T02:13:05;99703.53;;;4.36;100.00
32486;BME280;18935;52.236;21.134;2022-09-21T02:15:36;99706.13;;;4.36;100.00
32486;BME280;18935;52.236;21.134;2022-09-21T02:18:06;99705.22;;;4.40;100.00
32486;BME280;18935;52.236;21.134;2022-09-21T02:20:34;99703.56;;;4.34;100.00
32486;BME280;18935;52.236;21.134;2022-09-21T02:23:10;99705.25;;;4.37;100.00
32486;BME280;18935;52.236;21.134;2022-09-21T02:30:44;99698.25;;;4.45;100.00
32486;BME280;18935;52.236;21.134;2022-09-21T02:33:14;99698.38;;;4.37;100.00
32486;BME280;18935;52.236;21.134;2022-09-21T02:38:38;99696.63;;;4.39;100.00
32486;BME280;18935;52.236;21.134;2022-09-21T02:41:14;99701.91;;;4.32;100.00
32486;BME280;18935;52.236;21.134;2022-09-21T02:46:10;99715.53;;;4.40;100.00
32486;BME280;18935;52.236;21.134;2022-09-21T02:48:48;99713.75;;;4.45;100.00
32486;BME280;18935;52.236;21.134;2022-09-21T02:51:20;99711.09;;;4.48;100.00
32486;BME280;18935;52.236;21.134;2022-09-21T02:53:48;99720.63;;;4.44;100.00
32486;BME280;18935;52.236;21.134;2022-09-21T02:56:14;99721.50;;;4.45;100.00
32486;BME280;18935;52.236;21.134;2022-09-21T02:58:41;99725.84;;;4.41;100.00
32486;BME280;18935;52.236;21.134;2022-09-21T03:01:11;99725.81;;;4.43;100.00
32486;BME280;18935;52.236;21.134;2022-09-21T03:03:37;99717.97;;;4.49;100.00
32486;BME280;18935;52.236;21.134;2022-09-21T03:06:02;99723.94;;;4.51;100.00
32486;BME280;18935;52.236;21.134;2022-09-21T03:08:28;99730.06;;;4.47;100.00
32486;BME280;18935;52.236;21.134;2022-09-21T03:10:54;99725.84;;;4.41;100.00
32486;BME280;18935;52.236;21.134;2022-09-21T03:13:19;99721.56;;;4.40;100.00
32486;BME280;18935;52.236;21.134;2022-09-21T03:15:44;99721.47;;;4.46;100.00
32486;BME280;18935;52.236;21.134;2022-09-21T03:18:10;99717.88;;;4.55;100.00
32486;BME280;18935;52.236;21.134;2022-09-21T03:20:36;99726.50;;;4.54;100.00
32486;BME280;18935;52.236;21.134;2022-09-21T03:23:02;99725.69;;;4.51;100.00
32486;BME280;18935;52.236;21.134;2022-09-21T03:25:27;99728.22;;;4.55;100.00
32486;BME280;18935;52.236;21.134;2022-09-21T03:27:52;99728.25;;;4.52;100.00
32486;BME280;18935;52.236;21.134;2022-09-21T03:30:18;99730.78;;;4.55;100.00
32486;BME280;18935;52.236;21.134;2022-09-21T03:32:44;99729.22;;;4.46;100.00
32486;BME280;18935;52.236;21.134;2022-09-21T03:35:09;99730.09;;;4.44;100.00
32486;BME280;18935;52.236;21.134;2022-09-21T03:37:34;99721.31;;;4.56;100.00
32486;BME280;18935;52.236;21.134;2022-09-21T03:39:59;99733.41;;;4.52;100.00
32486;BME280;18935;52.236;21.134;2022-09-21T03:42:25;99733.41;;;4.52;100.00
32486;BME280;18935;52.236;21.134;2022-09-21T03:44:50;99728.16;;;4.58;100.00
32486;BME280;18935;52.236;21.134;2022-09-21T03:47:15;99730.75;;;4.57;100.00
32486;BME280;18935;52.236;21.134;2022-09-21T03:49:40;99733.41;;;4.52;100.00
32486;BME280;18935;52.236;21.134;2022-09-21T03:52:05;99738.53;;;4.55;100.00
32486;BME280;18935;52.236;21.134;2022-09-21T03:54:31;99735.88;;;4.60;100.00
32486;BME280;18935;52.236;21.134;2022-09-21T03:56:56;99737.72;;;4.53;100.00
32486;BME280;18935;52.236;21.134;2022-09-21T03:59:21;99740.25;;;4.56;100.00
32486;BME280;18935;52.236;21.134;2022-09-21T04:01:48;99746.25;;;4.57;100.00
32486;BME280;18935;52.236;21.134;2022-09-21T04:04:13;99748.00;;;4.56;100.00
32486;BME280;18935;52.236;21.134;2022-09-21T04:06:38;99750.53;;;4.58;100.00
32486;BME280;18935;52.236;21.134;2022-09-21T04:09:04;99742.00;;;4.54;100.00
32486;BME280;18935;52.236;21.134;2022-09-21T04:11:29;99748.78;;;4.61;100.00
32486;BME280;18935;52.236;21.134;2022-09-21T04:13:57;99746.16;;;4.63;100.00
32486;BME280;18935;52.236;21.134;2022-09-21T04:16:23;99751.34;;;4.63;100.00
32486;BME280;18935;52.236;21.134;2022-09-21T04:18:49;99751.31;;;4.64;100.00
32486;BME280;18935;52.236;21.134;2022-09-21T04:21:18;99752.25;;;4.60;100.00
32486;BME280;18935;52.236;21.134;2022-09-21T04:23:43;99755.59;;;4.65;100.00
32486;BME280;18935;52.236;21.134;2022-09-21T04:26:24;99757.25;;;4.69;100.00
32486;BME280;18935;52.236;21.134;2022-09-21T04:28:50;99760.84;;;4.59;100.00
32486;BME280;18935;52.236;21.134;2022-09-21T04:31:16;99750.53;;;4.58;100.00
32486;BME280;18935;52.236;21.134;2022-09-21T04:33:41;99763.31;;;4.68;100.00
32486;BME280;18935;52.236;21.134;2022-09-21T04:36:06;99764.28;;;4.61;100.00
32486;BME280;18935;52.236;21.134;2022-09-21T04:38:31;99770.19;;;4.68;100.00
32486;BME280;18935;52.236;21.134;2022-09-21T04:40:57;99768.53;;;4.64;100.00
32486;BME280;18935;52.236;21.134;2022-09-21T04:43:22;99770.19;;;4.68;100.00
32486;BME280;18935;52.236;21.134;2022-09-21T04:45:47;99767.59;;;4.69;100.00
32486;BME280;18935;52.236;21.134;2022-09-21T04:48:13;99768.47;;;4.68;100.00
32486;BME280;18935;52.236;21.134;2022-09-21T04:50:38;99771.91;;;4.67;100.00
32486;BME280;18935;52.236;21.134;2022-09-21T04:53:03;99768.44;;;4.70;100.00
32486;BME280;18935;52.236;21.134;2022-09-21T04:55:28;99769.16;;;4.78;100.00
32486;BME280;18935;52.236;21.134;2022-09-21T04:57:53;99770.91;;;4.78;100.00
32486;BME280;18935;52.236;21.134;2022-09-21T05:00:19;99776.88;;;4.80;100.00
32486;BME280;18935;52.236;21.134;2022-09-21T05:02:50;99781.16;;;4.84;100.00
32486;BME280;18935;52.236;21.134;2022-09-21T05:05:16;99774.94;;;4.94;100.00
32486;BME280;18935;52.236;21.134;2022-09-21T05:07:41;99781.78;;;4.96;100.00
32486;BME280;18935;52.236;21.134;2022-09-21T05:10:07;99795.66;;;4.92;100.00
32486;BME280;18935;52.236;21.134;2022-09-21T05:12:32;99784.38;;;4.95;100.00
32486;BME280;18935;52.236;21.134;2022-09-21T05:14:58;99786.13;;;4.94;100.00
32486;BME280;18935;52.236;21.134;2022-09-21T05:17:24;99785.34;;;4.89;100.00
32486;BME280;18935;52.236;21.134;2022-09-21T05:19:49;99798.19;;;4.94;100.00
32486;BME280;18935;52.236;21.134;2022-09-21T05:22:15;99797.28;;;4.96;100.00
32486;BME280;18935;52.236;21.134;2022-09-21T05:24:40;99795.53;;;5.00;100.00
32486;BME280;18935;52.236;21.134;2022-09-21T05:27:05;99802.47;;;4.95;100.00
32486;BME280;18935;52.236;21.134;2022-09-21T05:29:31;99802.34;;;5.02;100.00
32486;BME280;18935;52.236;21.134;2022-09-21T05:37:18;99817.03;;;5.00;100.00
32486;BME280;18935;52.236;21.134;2022-09-21T05:39:47;99814.41;;;5.03;100.00
32486;BME280;18935;52.236;21.134;2022-09-21T05:42:12;99823.03;;;5.02;100.00
32486;BME280;18935;52.236;21.134;2022-09-21T05:44:38;99814.31;;;5.10;100.00
32486;BME280;18935;52.236;21.134;2022-09-21T05:47:19;99815.16;;;5.10;100.00
32486;BME280;18935;52.236;21.134;2022-09-21T05:52:21;99821.94;;;5.17;100.00
32486;BME280;18935;52.236;21.134;2022-09-21T06:00:19;99825.41;;;5.16;100.00
32486;BME280;18935;52.236;21.134;2022-09-21T06:05:10;99827.84;;;5.24;100.00
32486;BME280;18935;52.236;21.134;2022-09-21T06:07:36;99822.00;;;5.14;100.00
32486;BME280;18935;52.236;21.134;2022-09-21T06:10:02;99830.56;;;5.16;100.00
32486;BME280;18935;52.236;21.134;2022-09-21T06:12:27;99827.06;;;5.19;100.00
32486;BME280;18935;52.236;21.134;2022-09-21T06:14:52;99827.16;;;5.13;100.00
32486;BME280;18935;52.236;21.134;2022-09-21T06:17:20;99827.03;;;5.20;100.00
32486;BME280;18935;52.236;21.134;2022-09-21T06:19:47;99833.88;;;5.24;100.00
32486;BME280;18935;52.236;21.134;2022-09-21T06:22:12;99838.06;;;5.32;100.00
32486;BME280;18935;52.236;21.134;2022-09-21T06:24:37;99831.94;;;5.36;100.00
32486;BME280;18935;52.236;21.134;2022-09-21T06:27:02;99835.25;;;5.44;100.00
32486;BME280;18935;52.236;21.134;2022-09-21T06:29:28;99835.25;;;5.44;100.00
32486;BME280;18935;52.236;21.134;2022-09-21T06:31:53;99841.22;;;5.47;100.00
32486;BME280;18935;52.236;21.134;2022-09-21T06:34:18;99844.78;;;5.42;100.00
32486;BME280;18935;52.236;21.134;2022-09-21T06:36:43;99847.16;;;5.54;100.00
32486;BME280;18935;52.236;21.134;2022-09-21T06:39:09;99847.19;;;5.51;100.00
32486;BME280;18935;52.236;21.134;2022-09-21T06:41:35;99848.84;;;5.55;100.00
32486;BME280;18935;52.236;21.134;2022-09-21T06:44:02;99849.56;;;5.63;100.00
32486;BME280;18935;52.236;21.134;2022-09-21T06:46:27;99849.50;;;5.68;100.00
32486;BME280;18935;52.236;21.134;2022-09-21T06:48:52;99846.97;;;5.63;100.00
32486;BME280;18935;52.236;21.134;2022-09-21T06:51:21;99856.31;;;5.72;100.00
32486;BME280;18935;52.236;21.134;2022-09-21T06:53:47;99851.88;;;5.78;100.00
32486;BME280;18935;52.236;21.134;2022-09-21T06:56:13;99861.22;;;5.85;100.00
32486;BME280;18935;52.236;21.134;2022-09-21T06:58:38;99862.06;;;5.86;100.00
32486;BME280;18935;52.236;21.134;2022-09-21T07:01:04;99856.97;;;5.81;100.00
32486;BME280;18935;52.236;21.134;2022-09-21T07:03:30;99868.44;;;5.70;100.00
32486;BME280;18935;52.236;21.134;2022-09-21T07:05:55;99866.56;;;5.78;100.00
32486;BME280;18935;52.236;21.134;2022-09-21T07:08:21;99865.44;;;5.90;100.00
32486;BME280;18935;52.236;21.134;2022-09-21T07:10:47;99869.00;;;5.85;100.00
32486;BME280;18935;52.236;21.134;2022-09-21T07:13:12;99874.03;;;5.95;100.00
32486;BME280;18935;52.236;21.134;2022-09-21T07:15:37;99873.78;;;6.07;100.00
32486;BME280;18935;52.236;21.134;2022-09-21T07:18:09;99873.78;;;6.07;100.00
32486;BME280;18935;52.236;21.134;2022-09-21T07:20:35;99876.47;;;6.02;100.00
32486;BME280;18935;52.236;21.134;2022-09-21T07:23:00;99876.09;;;6.22;100.00
32486;BME280;18935;52.236;21.134;2022-09-21T07:25:25;99871.78;;;6.21;100.00
32486;BME280;18935;52.236;21.134;2022-09-21T07:27:51;99874.47;;;6.17;100.00
32486;BME280;18935;52.236;21.134;2022-09-21T07:30:17;99873.03;;;6.02;100.00
32486;BME280;18935;52.236;21.134;2022-09-21T07:32:42;99886.16;;;5.90;100.00
32486;BME280;18935;52.236;21.134;2022-09-21T07:35:08;99878.50;;;5.85;100.00
32486;BME280;18935;52.236;21.134;2022-09-21T07:37:33;99879.22;;;5.93;100.00
32486;BME280;18935;52.236;21.134;2022-09-21T07:39:58;99881.63;;;6.02;100.00
32486;BME280;18935;52.236;21.134;2022-09-21T07:42:23;99883.59;;;5.91;100.00
32486;BME280;18935;52.236;21.134;2022-09-21T07:44:50;99885.34;;;5.91;100.00
32486;BME280;18935;52.236;21.134;2022-09-21T07:47:17;99886.03;;;5.99;100.00
32486;BME280;18935;52.236;21.134;2022-09-21T07:49:43;99885.13;;;6.01;100.00
32486;BME280;18935;52.236;21.134;2022-09-21T07:52:08;99890.97;;;6.11;100.00
32486;BME280;18935;52.236;21.134;2022-09-21T07:54:34;99893.59;;;6.09;100.00
32486;BME280;18935;52.236;21.134;2022-09-21T07:56:59;99898.34;;;6.31;100.00
32486;BME280;18935;52.236;21.134;2022-09-21T07:59:44;99893.81;;;6.40;100.00
32486;BME280;18935;52.236;21.134;2022-09-21T08:02:09;99887.56;;;6.51;100.00
32486;BME280;18935;52.236;21.134;2022-09-21T08:04:34;99894.88;;;6.72;100.00
32486;BME280;18935;52.236;21.134;2022-09-21T08:06:59;99896.47;;;6.78;100.00
32486;BME280;18935;52.236;21.134;2022-09-21T08:09:25;99898.75;;;6.53;100.00
32486;BME280;18935;52.236;21.134;2022-09-21T08:11:50;99890.28;;;6.45;100.00
32486;BME280;18935;52.236;21.134;2022-09-21T08:14:16;99896.94;;;6.56;100.00
32486;BME280;18935;52.236;21.134;2022-09-21T08:16:45;99901.88;;;6.67;100.00
32486;BME280;18935;52.236;21.134;2022-09-21T08:19:13;99907.34;;;6.55;100.00
32486;BME280;18935;52.236;21.134;2022-09-21T08:21:39;99912.72;;;6.46;100.00
32486;BME280;18935;52.236;21.134;2022-09-21T08:24:04;99915.66;;;6.27;100.00
32486;BME280;18935;52.236;21.134;2022-09-21T08:26:29;99921.81;;;6.23;100.00
32486;BME280;18935;52.236;21.134;2022-09-21T08:28:55;99915.06;;;6.13;100.00
32486;BME280;18935;52.236;21.134;2022-09-21T08:31:24;99912.56;;;6.10;100.00
32486;BME280;18935;52.236;21.134;2022-09-21T08:33:51;99915.84;;;6.18;100.00
32486;BME280;18935;52.236;21.134;2022-09-21T08:36:17;99910.44;;;6.30;100.00
32486;BME280;18935;52.236;21.134;2022-09-21T08:38:42;99909.47;;;6.34;100.00
32486;BME280;18935;52.236;21.134;2022-09-21T08:41:17;99912.91;;;6.36;100.00
32486;BME280;18935;52.236;21.134;2022-09-21T08:43:45;99923.28;;;6.36;100.00
32486;BME280;18935;52.236;21.134;2022-09-21T08:46:22;99921.44;;;6.41;100.00
32486;BME280;18935;52.236;21.134;2022-09-21T08:48:51;99922.97;;;6.52;100.00
32486;BME280;18935;52.236;21.134;2022-09-21T08:51:22;99914.31;;;6.53;100.00
32486;BME280;18935;52.236;21.134;2022-09-21T08:53:49;99921.44;;;6.83;100.00
32486;BME280;18935;52.236;21.134;2022-09-21T08:56:16;99920.72;;;7.14;100.00
32486;BME280;18935;52.236;21.134;2022-09-21T08:58:42;99917.69;;;7.32;100.00
32486;BME280;18935;52.236;21.134;2022-09-21T09:03:49;99921.41;;;7.22;100.00
32486;BME280;18935;52.236;21.134;2022-09-21T09:06:22;99921.75;;;7.07;100.00
32486;BME280;18935;52.236;21.134;2022-09-21T09:09:07;99919.88;;;7.13;100.00
32486;BME280;18935;52.236;21.134;2022-09-21T09:16:50;99923.84;;;6.89;100.00
32486;BME280;18935;52.236;21.134;2022-09-21T09:19:23;99918.66;;;6.89;100.00
32486;BME280;18935;52.236;21.134;2022-09-21T09:21:52;99921.69;;;7.10;100.00
32486;BME280;18935;52.236;21.134;2022-09-21T09:24:26;99920.56;;;7.20;100.00
32486;BME280;18935;52.236;21.134;2022-09-21T09:29:23;99918.13;;;7.14;100.00
32486;BME280;18935;52.236;21.134;2022-09-21T09:31:53;99916.56;;;7.42;100.00
32486;BME280;18935;52.236;21.134;2022-09-21T09:34:23;99923.78;;;7.67;100.00
32486;BME280;18935;52.236;21.134;2022-09-21T09:36:53;99908.81;;;7.76;100.00
32486;BME280;18935;52.236;21.134;2022-09-21T09:39:21;99910.31;;;7.85;100.00
32486;BME280;18935;52.236;21.134;2022-09-21T09:44:40;99918.72;;;8.26;100.00
32486;BME280;18935;52.236;21.134;2022-09-21T09:47:21;99914.16;;;8.34;99.82
32486;BME280;18935;52.236;21.134;2022-09-21T09:50:00;99913.47;;;8.58;95.68
32486;BME280;18935;52.236;21.134;2022-09-21T09:52:27;99911.31;;;8.43;94.48
32486;BME280;18935;52.236;21.134;2022-09-21T09:54:53;99915.66;;;8.43;93.65
32486;BME280;18935;52.236;21.134;2022-09-21T09:57:27;99908.69;;;8.14;97.81
32486;BME280;18935;52.236;21.134;2022-09-21T09:59:53;99904.75;;;7.99;99.06
32486;BME280;18935;52.236;21.134;2022-09-21T10:02:23;99911.72;;;7.97;98.81
32486;BME280;18935;52.236;21.134;2022-09-21T10:05:04;99910.63;;;8.05;97.00
32486;BME280;18935;52.236;21.134;2022-09-21T10:07:42;99909.38;;;7.88;100.00
32486;BME280;18935;52.236;21.134;2022-09-21T10:12:47;99923.88;;;7.27;100.00
32486;BME280;18935;52.236;21.134;2022-09-21T10:15:13;99917.59;;;7.35;100.00
32486;BME280;18935;52.236;21.134;2022-09-21T10:17:40;99921.50;;;7.17;100.00
32486;BME280;18935;52.236;21.134;2022-09-21T10:20:06;99924.41;;;7.04;100.00
32486;BME280;18935;52.236;21.134;2022-09-21T10:22:38;99918.91;;;7.17;100.00
32486;BME280;18935;52.236;21.134;2022-09-21T10:25:04;99919.03;;;7.48;100.00
32486;BME280;18935;52.236;21.134;2022-09-21T10:27:33;99917.53;;;7.72;100.00
32486;BME280;18935;52.236;21.134;2022-09-21T10:29:59;99914.84;;;8.09;100.00
32486;BME280;18935;52.236;21.134;2022-09-21T10:32:25;99919.81;;;8.17;100.00
32486;BME280;18935;52.236;21.134;2022-09-21T10:35:00;99928.81;;;8.05;100.00
32486;BME280;18935;52.236;21.134;2022-09-21T10:37:29;99924.59;;;8.01;100.00
32486;BME280;18935;52.236;21.134;2022-09-21T10:39:55;99925.63;;;7.94;100.00
32486;BME280;18935;52.236;21.134;2022-09-21T10:42:21;99923.97;;;7.92;100.00
32486;BME280;18935;52.236;21.134;2022-09-21T10:44:48;99919.38;;;8.01;100.00
32486;BME280;18935;52.236;21.134;2022-09-21T10:47:21;99921.94;;;8.03;100.00
32486;BME280;18935;52.236;21.134;2022-09-21T10:49:56;99917.28;;;8.16;100.00
32486;BME280;18935;52.236;21.134;2022-09-21T10:52:31;99921.81;;;8.40;100.00
32486;BME280;18935;52.236;21.134;2022-09-21T10:54:57;99915.44;;;8.80;100.00
32486;BME280;18935;52.236;21.134;2022-09-21T10:57:23;99916.44;;;8.76;100.00
32486;BME280;18935;52.236;21.134;2022-09-21T10:59:49;99911.38;;;8.42;100.00
32486;BME280;18935;52.236;21.134;2022-09-21T11:05:14;99913.44;;;8.29;100.00
32486;BME280;18935;52.236;21.134;2022-09-21T11:07:45;99907.03;;;8.72;100.00
32486;BME280;18935;52.236;21.134;2022-09-21T11:10:17;99914.69;;;8.76;100.00
32486;BME280;18935;52.236;21.134;2022-09-21T11:15:20;99908.66;;;9.83;100.00
32486;BME280;18935;52.236;21.134;2022-09-21T11:17:48;99926.16;;;10.76;100.00
32486;BME280;18935;52.236;21.134;2022-09-21T11:20:25;99909.16;;;11.54;90.57
32486;BME280;18935;52.236;21.134;2022-09-21T11:22:58;99909.09;;;11.13;92.03
32486;BME280;18935;52.236;21.134;2022-09-21T11:28:15;99914.59;;;10.60;91.25
32486;BME280;18935;52.236;21.134;2022-09-21T11:30:41;99911.53;;;10.49;92.04
32486;BME280;18935;52.236;21.134;2022-09-21T11:33:13;99918.44;;;10.97;86.65
32486;BME280;18935;52.236;21.134;2022-09-21T11:40:58;99908.09;;;10.94;85.45
32486;BME280;18935;52.236;21.134;2022-09-21T11:56:37;99902.50;;;10.34;88.97
32486;BME280;18935;52.236;21.134;2022-09-21T11:59:32;99901.72;;;10.55;87.00
32486;BME280;18935;52.236;21.134;2022-09-21T12:04:54;99898.16;;;10.81;81.84
32486;BME280;18935;52.236;21.134;2022-09-21T12:07:35;99895.97;;;10.93;81.18
32486;BME280;18935;52.236;21.134;2022-09-21T12:12:37;99896.91;;;10.68;75.99
32486;BME280;18935;52.236;21.134;2022-09-21T12:17:57;99894.25;;;10.46;72.23
32486;BME280;18935;52.236;21.134;2022-09-21T12:20:29;99885.34;;;10.75;72.51
32486;BME280;18935;52.236;21.134;2022-09-21T12:22:59;99882.19;;;10.19;71.73
32486;BME280;18935;52.236;21.134;2022-09-21T12:25:27;99875.34;;;10.16;71.60
32486;BME280;18935;52.236;21.134;2022-09-21T12:27:58;99875.59;;;10.34;71.90
32486;BME280;18935;52.236;21.134;2022-09-21T12:30:24;99877.88;;;10.43;71.05
32486;BME280;18935;52.236;21.134;2022-09-21T12:33:02;99870.28;;;10.37;71.05
32486;BME280;18935;52.236;21.134;2022-09-21T12:38:11;99863.13;;;10.42;71.23
32486;BME280;18935;52.236;21.134;2022-09-21T12:43:09;99869.38;;;10.83;72.22
32486;BME280;18935;52.236;21.134;2022-09-21T12:48:07;99862.81;;;11.17;64.68
32486;BME280;18935;52.236;21.134;2022-09-21T12:50:45;99863.94;;;10.44;63.92
32486;BME280;18935;52.236;21.134;2022-09-21T12:53:16;99866.25;;;10.51;64.73
32486;BME280;18935;52.236;21.134;2022-09-21T12:55:47;99862.38;;;10.62;65.17
32486;BME280;18935;52.236;21.134;2022-09-21T13:01:01;99862.81;;;10.02;64.96
32486;BME280;18935;52.236;21.134;2022-09-21T13:03:37;99864.72;;;10.22;64.18
32486;BME280;18935;52.236;21.134;2022-09-21T13:08:34;99854.78;;;10.09;66.64
32486;BME280;18935;52.236;21.134;2022-09-21T13:11:01;99855.63;;;10.09;66.80
32486;BME280;18935;52.236;21.134;2022-09-21T13:13:33;99855.41;;;10.15;67.23
32486;BME280;18935;52.236;21.134;2022-09-21T13:15:59;99862.53;;;10.35;67.24
32486;BME280;18935;52.236;21.134;2022-09-21T13:20:53;99864.94;;;10.40;64.43
32486;BME280;18935;52.236;21.134;2022-09-21T13:26:06;99868.13;;;10.24;63.56
32486;BME280;18935;52.236;21.134;2022-09-21T13:28:45;99869.81;;;10.00;63.48
32486;BME280;18935;52.236;21.134;2022-09-21T13:31:28;99868.13;;;9.99;63.00
32486;BME280;18935;52.236;21.134;2022-09-21T13:34:15;99870.44;;;9.84;64.40
32486;BME280;18935;52.236;21.134;2022-09-21T13:36:43;99867.78;;;9.85;66.95
32486;BME280;18935;52.236;21.134;2022-09-21T13:41:34;99871.34;;;9.83;73.21
32486;BME280;18935;52.236;21.134;2022-09-21T13:46:51;99875.47;;;9.63;75.86
32486;BME280;18935;52.236;21.134;2022-09-21T13:49:19;99873.44;;;9.71;75.39
32486;BME280;18935;52.236;21.134;2022-09-21T13:51:52;99862.22;;;9.44;76.51
32486;BME280;18935;52.236;21.134;2022-09-21T13:54:21;99867.41;;;9.71;75.94
32486;BME280;18935;52.236;21.134;2022-09-21T13:56:57;99860.69;;;9.89;73.20
32486;BME280;18935;52.236;21.134;2022-09-21T13:59:24;99855.84;;;10.03;72.01
32486;BME280;18935;52.236;21.134;2022-09-21T14:01:51;99860.59;;;9.92;72.53
32486;BME280;18935;52.236;21.134;2022-09-21T14:06:46;99858.25;;;9.59;73.72
32486;BME280;18935;52.236;21.134;2022-09-21T14:12:16;99860.03;;;9.57;76.43
32486;BME280;18935;52.236;21.134;2022-09-21T14:14:43;99861.16;;;9.50;76.72
32486;BME280;18935;52.236;21.134;2022-09-21T14:17:38;99866.69;;;9.41;79.17
32486;BME280;18935;52.236;21.134;2022-09-21T14:20:05;99863.97;;;9.17;79.46
32486;BME280;18935;52.236;21.134;2022-09-21T14:22:48;99867.13;;;9.27;77.80
32486;BME280;18935;52.236;21.134;2022-09-21T14:25:53;99873.41;;;9.22;76.46
32486;BME280;18935;52.236;21.134;2022-09-21T14:28:37;99878.09;;;9.10;76.54
32486;BME280;18935;52.236;21.134;2022-09-21T14:31:14;99876.31;;;8.84;77.14
32486;BME280;18935;52.236;21.134;2022-09-21T14:33:51;99871.91;;;8.86;77.58
32486;BME280;18935;52.236;21.134;2022-09-21T14:36:18;99869.06;;;8.94;77.83
32486;BME280;18935;52.236;21.134;2022-09-21T14:38:48;99871.78;;;8.91;75.60
32486;BME280;18935;52.236;21.134;2022-09-21T14:41:17;99865.72;;;8.90;76.41
32486;BME280;18935;52.236;21.134;2022-09-21T14:43:47;99865.97;;;8.83;77.54
32486;BME280;18935;52.236;21.134;2022-09-21T14:46:26;99861.25;;;8.94;78.66
32486;BME280;18935;52.236;21.134;2022-09-21T14:56:50;99870.47;;;9.57;77.45
32486;BME280;18935;52.236;21.134;2022-09-21T14:59:47;99862.22;;;9.18;81.09
32486;BME280;18935;52.236;21.134;2022-09-21T15:02:21;99867.50;;;8.88;83.13
32486;BME280;18935;52.236;21.134;2022-09-21T15:04:53;99864.94;;;8.87;83.44